createdAt,value
2019-05-18T00:00:36.728Z,43.50
2019-05-18T00:03:05.163Z,43.33
2019-05-18T00:05:33.561Z,44.90
2019-05-18T00:08:01.976Z,46.90
2019-05-18T00:10:30.636Z,46.50
2019-05-18T00:12:59.052Z,41.40
2019-05-18T00:15:27.475Z,53.03
2019-05-18T00:17:55.902Z,44.77
2019-05-18T00:20:24.369Z,45.17
2019-05-18T00:22:52.819Z,43.77
2019-05-18T00:25:21.235Z,39.03
2019-05-18T00:27:49.641Z,45.67
2019-05-18T00:30:18.059Z,49.13
2019-05-18T00:32:46.474Z,49.50
2019-05-18T00:35:16.673Z,45.13
2019-05-18T00:37:45.104Z,52.60
2019-05-18T00:40:13.591Z,49.83
2019-05-18T00:42:42.008Z,44.03
2019-05-18T00:45:10.773Z,49.67
2019-05-18T00:47:41.966Z,46.20
2019-05-18T00:50:09.707Z,47.47
2019-05-18T00:52:38.352Z,61.50
2019-05-18T00:55:08.304Z,47.50
2019-05-18T00:57:36.812Z,49.43
2019-05-18T01:00:09.258Z,53.63
2019-05-18T01:02:37.675Z,60.07
2019-05-18T01:05:06.838Z,52.83
2019-05-18T01:07:36.340Z,48.17
2019-05-18T01:10:06.642Z,53.10
2019-05-18T01:12:35.060Z,55.53
2019-05-18T01:15:06.599Z,51.30
2019-05-18T01:17:35.088Z,56.97
2019-05-18T01:20:03.979Z,50.90
2019-05-18T01:22:32.415Z,54.77
2019-05-18T01:25:00.804Z,46.13
2019-05-18T01:27:29.292Z,50.30
2019-05-18T01:29:57.959Z,44.60
2019-05-18T01:32:27.745Z,53.70
2019-05-18T01:34:56.163Z,57.53
2019-05-18T01:37:24.581Z,47.73
2019-05-18T01:39:53.040Z,50.57
2019-05-18T01:42:21.513Z,49.40
2019-05-18T01:44:51.467Z,53.07
2019-05-18T01:47:19.879Z,53.60
2019-05-18T01:49:48.312Z,54.93
2019-05-18T01:52:16.759Z,45.33
2019-05-18T01:54:45.156Z,59.80
2019-05-18T01:57:13.567Z,67.40
2019-05-18T01:59:42.012Z,59.57
2019-05-18T02:02:10.473Z,65.80
2019-05-18T02:04:38.914Z,42.93
2019-05-18T02:07:07.337Z,51.40
2019-05-18T02:09:35.754Z,52.70
2019-05-18T02:12:04.184Z,51.03
2019-05-18T02:14:32.603Z,44.27
2019-05-18T02:17:01.018Z,47.57
2019-05-18T02:19:29.449Z,48.23
2019-05-18T02:21:57.846Z,44.47
2019-05-18T02:24:26.263Z,40.97
2019-05-18T02:26:54.697Z,44.97
2019-05-18T02:29:23.177Z,57.03
2019-05-18T02:31:51.583Z,45.13
2019-05-18T02:34:20.051Z,55.77
2019-05-18T02:36:48.525Z,34.90
2019-05-18T02:39:17.032Z,64.17
2019-05-18T02:41:45.450Z,64.27
2019-05-18T02:44:13.862Z,52.17
2019-05-18T02:46:42.316Z,58.77
2019-05-18T02:49:10.737Z,59.37
2019-05-18T02:51:39.196Z,71.00
2019-05-18T02:54:07.626Z,64.73
2019-05-18T02:56:36.535Z,54.30
2019-05-18T02:59:04.945Z,62.57
2019-05-18T03:01:33.359Z,53.77
2019-05-18T03:04:01.779Z,54.17
2019-05-18T03:06:30.185Z,44.13
2019-05-18T03:08:58.595Z,48.10
2019-05-18T03:11:26.999Z,40.93
2019-05-18T03:13:55.417Z,46.40
2019-05-18T03:16:23.842Z,43.43
2019-05-18T03:19:06.888Z,39.07
2019-05-18T03:21:22.564Z,29.87
2019-05-18T03:23:51.035Z,30.17
2019-05-18T03:26:19.461Z,27.47
2019-05-18T03:28:48.540Z,28.17
2019-05-18T03:31:18.170Z,35.03
2019-05-18T03:33:46.645Z,31.40
2019-05-18T03:36:15.056Z,33.27
2019-05-18T03:38:43.461Z,31.20
2019-05-18T03:41:11.865Z,36.27
2019-05-18T03:43:40.278Z,32.70
2019-05-18T03:46:08.709Z,41.87
2019-05-18T03:48:37.128Z,60.73
2019-05-18T03:51:06.475Z,59.70
2019-05-18T03:53:34.894Z,33.27
2019-05-18T03:56:03.305Z,34.37
2019-05-18T03:58:31.721Z,32.87
2019-05-18T04:01:00.153Z,29.93
2019-05-18T04:03:28.875Z,35.33
2019-05-18T04:05:57.329Z,30.27
2019-05-18T04:08:25.743Z,32.07
2019-05-18T04:10:55.724Z,30.27
2019-05-18T04:13:24.142Z,28.13
2019-05-18T04:15:52.557Z,33.33
2019-05-18T04:18:20.971Z,21.63
2019-05-18T04:20:49.414Z,19.00
2019-05-18T04:23:17.835Z,21.97
2019-05-18T04:25:46.249Z,24.50
2019-05-18T04:28:14.727Z,39.67
2019-05-18T04:30:43.223Z,26.20
2019-05-18T04:33:11.648Z,35.87
2019-05-18T04:35:40.061Z,26.00
2019-05-18T04:38:08.473Z,29.27
2019-05-18T04:40:36.899Z,26.67
2019-05-18T04:43:05.401Z,34.03
2019-05-18T04:45:33.808Z,34.17
2019-05-18T04:48:02.230Z,34.20
2019-05-18T04:50:30.638Z,35.80
2019-05-18T04:52:59.134Z,30.37
2019-05-18T04:55:27.601Z,33.33
2019-05-18T04:57:56.338Z,29.97
2019-05-18T05:00:24.798Z,32.97
2019-05-18T05:02:53.242Z,33.97
2019-05-18T05:05:21.646Z,31.53
2019-05-18T05:07:50.065Z,32.43
2019-05-18T05:10:18.508Z,32.53
2019-05-18T05:12:46.920Z,44.73
2019-05-18T05:15:15.685Z,53.40
2019-05-18T05:17:44.095Z,48.77
2019-05-18T05:20:19.811Z,52.00
2019-05-18T05:22:42.790Z,47.30
2019-05-18T05:25:12.610Z,49.30
2019-05-18T05:27:41.023Z,56.87
2019-05-18T05:30:09.495Z,52.63
2019-05-18T05:32:37.915Z,50.03
2019-05-18T05:35:07.023Z,53.67
2019-05-18T05:37:35.479Z,48.97
2019-05-18T05:40:07.697Z,43.20
2019-05-18T05:42:36.112Z,43.67
2019-05-18T05:45:06.378Z,39.63
2019-05-18T05:47:34.873Z,35.50
2019-05-18T05:50:05.051Z,37.53
2019-05-18T05:52:33.774Z,35.77
2019-05-18T05:55:02.190Z,36.00
2019-05-18T05:57:30.639Z,33.27
2019-05-18T05:59:59.057Z,35.80
2019-05-18T06:02:27.792Z,29.57
2019-05-18T06:04:56.253Z,32.90
2019-05-18T06:07:25.063Z,33.87
2019-05-18T06:09:53.501Z,32.33
2019-05-18T06:12:21.923Z,31.03
2019-05-18T06:14:50.336Z,31.97
2019-05-18T06:17:18.758Z,29.33
2019-05-18T06:19:47.198Z,30.87
2019-05-18T06:22:15.919Z,32.85
2019-05-18T06:24:44.340Z,30.82
2019-05-18T06:27:13.031Z,29.40
2019-05-18T06:29:41.458Z,30.23
2019-05-18T06:32:09.874Z,26.77
2019-05-18T06:34:38.280Z,28.40
2019-05-18T06:37:06.687Z,27.00
2019-05-18T06:39:35.113Z,27.73
2019-05-18T06:42:03.535Z,27.48
2019-05-18T06:44:31.984Z,30.10
2019-05-18T06:47:00.376Z,28.87
2019-05-18T06:49:28.867Z,28.38
2019-05-18T06:51:57.304Z,28.87
2019-05-18T06:54:25.726Z,31.35
2019-05-18T06:56:55.948Z,27.42
2019-05-18T06:59:26.199Z,30.45
2019-05-18T07:01:54.656Z,29.57
2019-05-18T07:04:23.060Z,29.72
2019-05-18T07:06:51.570Z,27.93
2019-05-18T07:09:19.978Z,24.87
2019-05-18T07:11:48.414Z,24.85
2019-05-18T07:14:25.277Z,24.02
2019-05-18T07:16:47.532Z,25.30
2019-05-18T07:19:16.273Z,25.85
2019-05-18T07:21:44.685Z,27.20
2019-05-18T07:24:13.159Z,25.45
2019-05-18T07:26:41.619Z,24.27
2019-05-18T07:29:10.078Z,22.45
2019-05-18T07:31:38.534Z,25.17
2019-05-18T07:34:06.962Z,22.75
2019-05-18T07:36:35.410Z,22.17
2019-05-18T07:39:05.496Z,25.95
2019-05-18T07:41:45.898Z,23.18
2019-05-18T07:44:04.073Z,23.60
2019-05-18T07:46:32.474Z,20.77
2019-05-18T07:49:00.904Z,22.93
2019-05-18T07:51:37.039Z,22.10
2019-05-18T07:53:59.542Z,26.75
2019-05-18T07:56:27.954Z,25.20
2019-05-18T07:58:56.362Z,22.75
2019-05-18T08:01:24.785Z,24.05
2019-05-18T08:03:53.197Z,25.20
2019-05-18T08:06:21.622Z,23.27
2019-05-18T08:08:51.020Z,24.00
2019-05-18T08:11:19.427Z,22.75
2019-05-18T08:13:47.847Z,21.60
2019-05-18T08:16:16.358Z,23.07
2019-05-18T08:18:44.764Z,26.33
2019-05-18T08:21:13.180Z,26.17
2019-05-18T08:23:41.607Z,26.23
2019-05-18T08:26:10.054Z,25.82
2019-05-18T08:28:38.450Z,29.23
2019-05-18T08:31:06.874Z,26.07
2019-05-18T08:33:35.277Z,27.13
2019-05-18T08:36:03.748Z,26.80
2019-05-18T08:38:34.099Z,26.93
2019-05-18T08:41:02.613Z,26.53
2019-05-18T08:43:31.117Z,27.70
2019-05-18T08:46:00.924Z,31.83
2019-05-18T08:48:29.324Z,29.00
2019-05-18T08:50:57.746Z,30.07
2019-05-18T08:53:26.172Z,31.60
2019-05-18T08:55:54.589Z,32.13
2019-05-18T08:58:22.997Z,33.43
2019-05-18T09:00:51.497Z,34.33
2019-05-18T09:03:19.977Z,32.03
2019-05-18T09:05:48.675Z,33.40
2019-05-18T09:08:17.095Z,32.60
2019-05-18T09:10:45.501Z,34.87
2019-05-18T09:13:13.923Z,33.60
2019-05-18T09:15:42.842Z,33.07
2019-05-18T09:18:11.279Z,32.80
2019-05-18T09:20:40.182Z,30.90
2019-05-18T09:23:08.912Z,29.97
2019-05-18T09:25:37.327Z,29.73
2019-05-18T09:28:05.750Z,30.77
2019-05-18T09:30:34.756Z,29.00
2019-05-18T09:33:03.144Z,30.30
2019-05-18T09:35:31.628Z,26.48
2019-05-18T09:38:00.053Z,26.77
2019-05-18T09:40:28.842Z,26.73
2019-05-18T09:42:57.256Z,28.33
2019-05-18T09:45:25.883Z,27.00
2019-05-18T09:47:54.308Z,28.93
2019-05-18T09:50:23.045Z,27.48
2019-05-18T09:52:51.503Z,26.87
2019-05-18T09:55:19.940Z,28.03
2019-05-18T09:57:48.367Z,27.62
2019-05-18T10:00:18.388Z,27.82
2019-05-18T10:02:46.834Z,28.42
2019-05-18T10:05:15.742Z,26.60
2019-05-18T10:07:44.171Z,25.68
2019-05-18T10:10:12.818Z,21.68
2019-05-18T10:12:41.226Z,23.80
2019-05-18T10:15:10.094Z,23.45
2019-05-18T10:17:38.518Z,23.85
2019-05-18T10:20:07.792Z,22.30
2019-05-18T10:22:51.196Z,23.52
2019-05-18T10:25:09.353Z,24.20
2019-05-18T10:27:38.134Z,21.75
2019-05-18T10:30:07.625Z,22.10
2019-05-18T10:32:36.070Z,22.90
2019-05-18T10:35:06.317Z,22.58
2019-05-18T10:37:34.778Z,25.35
2019-05-18T10:40:05.040Z,24.37
2019-05-18T10:42:33.481Z,22.90
2019-05-18T10:45:01.928Z,25.48
2019-05-18T10:47:31.404Z,21.60
2019-05-18T10:49:59.837Z,24.52
2019-05-18T10:52:29.648Z,22.48
2019-05-18T10:54:58.063Z,22.37
2019-05-18T10:57:26.484Z,22.07
2019-05-18T10:59:57.222Z,21.95
2019-05-18T11:02:25.652Z,22.50
2019-05-18T11:04:54.105Z,23.55
2019-05-18T11:07:22.512Z,25.05
2019-05-18T11:09:51.000Z,22.62
2019-05-18T11:12:19.408Z,23.83
2019-05-18T11:14:47.848Z,22.60
2019-05-18T11:17:16.276Z,22.67
2019-05-18T11:19:44.697Z,24.07
2019-05-18T11:22:13.140Z,21.85
2019-05-18T11:24:43.962Z,24.67
2019-05-18T11:27:12.383Z,26.87
2019-05-18T11:29:42.633Z,21.93
2019-05-18T11:32:12.933Z,19.23
2019-05-18T11:34:41.376Z,21.07
2019-05-18T11:37:10.142Z,20.12
2019-05-18T11:39:38.561Z,22.17
2019-05-18T11:42:06.988Z,22.42
2019-05-18T11:44:35.540Z,19.40
2019-05-18T11:47:04.095Z,21.48
2019-05-18T11:49:32.548Z,18.25
2019-05-18T11:52:00.943Z,22.40
2019-05-18T11:54:29.366Z,20.52
2019-05-18T11:56:57.836Z,19.98
2019-05-18T11:59:26.333Z,20.57
2019-05-18T12:01:54.740Z,18.62
2019-05-18T12:04:23.170Z,18.50
2019-05-18T12:06:58.217Z,19.92
2019-05-18T12:09:27.869Z,18.92
2019-05-18T12:11:56.374Z,19.35
2019-05-18T12:14:24.923Z,21.45
2019-05-18T12:16:53.310Z,18.70
2019-05-18T12:19:22.032Z,19.05
2019-05-18T12:21:51.533Z,19.23
2019-05-18T12:24:20.078Z,17.98
2019-05-18T12:26:50.168Z,16.85
2019-05-18T12:29:18.574Z,15.90
2019-05-18T12:31:47.028Z,18.45
2019-05-18T12:34:15.445Z,20.27
2019-05-18T12:36:43.873Z,17.70
2019-05-18T12:39:12.278Z,18.07
2019-05-18T12:41:40.711Z,19.02
2019-05-18T12:44:09.111Z,17.95
2019-05-18T12:46:37.893Z,19.12
2019-05-18T12:49:06.274Z,17.40
2019-05-18T12:51:34.709Z,17.40
2019-05-18T12:54:03.448Z,17.80
2019-05-18T12:56:31.912Z,17.90
2019-05-18T12:59:00.398Z,16.10
2019-05-18T13:01:29.197Z,15.53
2019-05-18T13:03:57.716Z,16.65
2019-05-18T13:06:26.944Z,17.55
2019-05-18T13:08:55.679Z,18.82
2019-05-18T13:11:24.319Z,20.70
2019-05-18T13:13:52.974Z,17.48
2019-05-18T13:16:21.924Z,18.87
2019-05-18T13:18:51.043Z,17.92
2019-05-18T13:21:20.028Z,18.37
2019-05-18T13:23:49.024Z,18.40
2019-05-18T13:26:17.741Z,18.77
2019-05-18T13:28:46.468Z,19.00
2019-05-18T13:31:14.960Z,20.43
2019-05-18T13:33:43.484Z,17.77
2019-05-18T13:36:12.222Z,17.82
2019-05-18T13:38:40.780Z,17.42
2019-05-18T13:41:09.223Z,15.60
2019-05-18T13:43:37.790Z,18.23
2019-05-18T13:46:06.204Z,16.60
2019-05-18T13:48:35.052Z,15.43
2019-05-18T13:51:03.851Z,17.65
2019-05-18T13:53:32.278Z,15.43
2019-05-18T13:56:00.690Z,15.15
2019-05-18T13:58:29.799Z,15.70
2019-05-18T14:00:58.247Z,15.35
2019-05-18T14:03:26.748Z,13.90
2019-05-18T14:05:55.149Z,12.80
2019-05-18T14:08:23.578Z,12.40
2019-05-18T14:10:51.991Z,13.53
2019-05-18T14:13:20.629Z,11.28
2019-05-18T14:15:49.285Z,12.13
2019-05-18T14:18:17.754Z,11.03
2019-05-18T14:20:47.720Z,12.03
2019-05-18T14:23:19.167Z,13.58
2019-05-18T14:25:47.838Z,14.80
2019-05-18T14:28:16.271Z,15.23
2019-05-18T14:30:44.774Z,17.65
2019-05-18T14:33:14.672Z,13.93
2019-05-18T14:35:43.092Z,13.32
2019-05-18T14:38:11.514Z,14.05
2019-05-18T14:40:39.997Z,14.45
2019-05-18T14:43:08.684Z,13.05
2019-05-18T14:45:37.087Z,13.53
2019-05-18T14:48:05.495Z,12.20
2019-05-18T14:50:34.049Z,13.18
2019-05-18T14:53:02.543Z,14.15
2019-05-18T14:55:33.870Z,12.35
2019-05-18T14:58:01.292Z,14.47
2019-05-18T15:00:29.728Z,12.88
2019-05-18T15:02:58.144Z,14.07
2019-05-18T15:05:26.572Z,12.63
2019-05-18T15:07:54.985Z,12.68
2019-05-18T15:10:23.454Z,14.45
2019-05-18T15:12:51.898Z,12.80
2019-05-18T15:15:20.878Z,13.75
2019-05-18T15:17:49.321Z,13.48
2019-05-18T15:20:18.204Z,13.48
2019-05-18T15:22:46.687Z,13.45
2019-05-18T15:25:15.461Z,13.13
2019-05-18T15:27:43.955Z,12.05
2019-05-18T15:30:12.741Z,14.33
2019-05-18T15:32:41.272Z,14.90
2019-05-18T15:35:10.008Z,15.00
2019-05-18T15:37:43.421Z,14.45
2019-05-18T15:40:10.717Z,15.15
2019-05-18T15:42:39.215Z,14.47
2019-05-18T15:45:08.987Z,15.68
2019-05-18T15:47:37.515Z,15.68
2019-05-18T15:50:07.776Z,15.28
2019-05-18T15:52:36.251Z,14.05
2019-05-18T15:55:07.661Z,15.93
2019-05-18T15:57:36.254Z,15.25
2019-05-18T16:00:07.610Z,14.93
2019-05-18T16:02:36.329Z,13.53
2019-05-18T16:05:05.648Z,14.98
2019-05-18T16:07:34.076Z,15.03
2019-05-18T16:10:02.506Z,15.05
2019-05-18T16:12:31.151Z,15.30
2019-05-18T16:14:59.662Z,15.03
2019-05-18T16:17:38.841Z,21.48
2019-05-18T16:19:58.319Z,16.73
2019-05-18T16:22:26.760Z,17.52
2019-05-18T16:24:55.580Z,14.75
2019-05-18T16:27:24.339Z,16.12
2019-05-18T16:29:52.848Z,16.60
2019-05-18T16:32:21.274Z,13.90
2019-05-18T16:34:49.685Z,18.55
2019-05-18T16:37:18.105Z,14.83
2019-05-18T16:39:46.750Z,12.98
2019-05-18T16:42:15.218Z,15.72
2019-05-18T16:44:43.611Z,13.22
2019-05-18T16:47:12.163Z,14.00
2019-05-18T16:49:40.660Z,13.22
2019-05-18T16:52:09.072Z,12.88
2019-05-18T16:54:37.493Z,12.07
2019-05-18T16:57:05.921Z,12.37
2019-05-18T16:59:34.911Z,13.05
2019-05-18T17:02:03.404Z,16.10
2019-05-18T17:04:31.829Z,19.92
2019-05-18T17:07:00.328Z,21.10
2019-05-18T17:09:28.808Z,20.35
2019-05-18T17:11:57.271Z,23.25
2019-05-18T17:14:25.676Z,24.72
2019-05-18T17:16:54.092Z,25.17
2019-05-18T17:19:22.499Z,25.10
2019-05-18T17:21:50.924Z,23.27
2019-05-18T17:24:19.525Z,24.52
2019-05-18T17:26:52.827Z,24.03
2019-05-18T17:29:18.369Z,24.33
2019-05-18T17:31:46.795Z,25.13
2019-05-18T17:34:15.460Z,30.70
2019-05-18T17:36:43.902Z,26.60
2019-05-18T17:39:12.608Z,28.70
2019-05-18T17:41:41.020Z,25.47
2019-05-18T17:44:09.466Z,26.50
2019-05-18T17:46:37.903Z,29.03
2019-05-18T17:49:06.329Z,28.57
2019-05-18T17:51:34.910Z,28.03
2019-05-18T17:54:03.854Z,27.57
2019-05-18T17:56:32.349Z,29.23
2019-05-18T17:59:01.207Z,28.60
2019-05-18T18:01:29.635Z,29.37
2019-05-18T18:03:58.086Z,29.87
2019-05-18T18:06:26.603Z,32.77
2019-05-18T18:08:55.320Z,33.80
2019-05-18T18:11:23.922Z,32.30
2019-05-18T18:13:52.443Z,37.23
2019-05-18T18:16:21.193Z,36.67
2019-05-18T18:18:49.646Z,36.30
2019-05-18T18:21:18.103Z,34.67
2019-05-18T18:23:54.080Z,34.40
2019-05-18T18:26:16.942Z,31.40
2019-05-18T18:28:45.357Z,35.27
2019-05-18T18:31:13.947Z,37.23
2019-05-18T18:33:42.776Z,34.83
2019-05-18T18:36:11.273Z,35.90
2019-05-18T18:38:39.999Z,40.70
2019-05-18T18:41:08.444Z,41.17
2019-05-18T18:43:36.913Z,42.23
2019-05-18T18:46:05.477Z,42.00
2019-05-18T18:48:34.126Z,46.33
2019-05-18T18:51:02.620Z,44.87
2019-05-18T18:53:31.090Z,44.77
2019-05-18T18:55:59.551Z,44.73
2019-05-18T18:58:33.975Z,44.57
2019-05-18T19:01:02.406Z,43.73
2019-05-18T19:03:30.890Z,44.20
2019-05-18T19:05:59.343Z,45.57
2019-05-18T19:08:27.845Z,44.63
2019-05-18T19:10:56.304Z,47.50
2019-05-18T19:13:24.795Z,49.33
2019-05-18T19:15:53.232Z,51.03
2019-05-18T19:18:21.616Z,54.33
2019-05-18T19:20:50.053Z,51.37
2019-05-18T19:23:18.468Z,50.43
2019-05-18T19:25:46.948Z,51.77
2019-05-18T19:28:15.404Z,55.77
2019-05-18T19:30:43.817Z,53.77
2019-05-18T19:33:12.255Z,54.53
2019-05-18T19:35:40.669Z,57.07
2019-05-18T19:38:09.107Z,54.47
2019-05-18T19:40:37.622Z,57.70
2019-05-18T19:43:06.070Z,54.17
2019-05-18T19:45:34.489Z,60.07
2019-05-18T19:48:02.950Z,63.57
2019-05-18T19:50:31.364Z,62.50
2019-05-18T19:52:59.783Z,63.73
2019-05-18T19:55:28.209Z,63.73
2019-05-18T19:58:08.150Z,64.40
2019-05-18T20:00:26.795Z,67.40
2019-05-18T20:02:55.206Z,64.20
2019-05-18T20:05:23.711Z,65.20
2019-05-18T20:07:52.190Z,63.93
2019-05-18T20:10:20.767Z,61.50
2019-05-18T20:12:49.174Z,72.17
2019-05-18T20:15:18.874Z,73.13
2019-05-18T20:17:47.537Z,69.53
2019-05-18T20:20:16.968Z,68.73
2019-05-18T20:22:45.399Z,67.60
2019-05-18T20:25:13.954Z,71.57
2019-05-18T20:27:42.414Z,70.43
2019-05-18T20:30:11.763Z,67.53
2019-05-18T20:32:40.255Z,65.60
2019-05-18T20:35:09.424Z,70.03
2019-05-18T20:37:37.867Z,70.63
2019-05-18T20:40:06.983Z,72.43
2019-05-18T20:42:37.521Z,70.60
2019-05-18T20:45:06.167Z,75.37
2019-05-18T20:47:34.634Z,71.73
2019-05-18T20:50:03.567Z,81.27
2019-05-18T20:52:32.031Z,73.90
2019-05-18T20:55:00.466Z,71.97
2019-05-18T20:57:28.928Z,82.93
2019-05-18T20:59:57.354Z,82.20
2019-05-18T21:02:25.787Z,88.50
2019-05-18T21:04:54.206Z,79.60
2019-05-18T21:07:27.384Z,81.87
2019-05-18T21:09:56.001Z,79.80
2019-05-18T21:12:26.292Z,84.40
2019-05-18T21:14:54.743Z,86.07
2019-05-18T21:17:23.502Z,83.40
2019-05-18T21:19:51.917Z,71.83
2019-05-18T21:22:20.370Z,85.13
2019-05-18T21:24:48.819Z,86.87
2019-05-18T21:27:17.532Z,90.03
2019-05-18T21:29:45.962Z,87.17
2019-05-18T21:32:14.387Z,84.53
2019-05-18T21:34:42.827Z,92.13
2019-05-18T21:37:11.233Z,80.67
2019-05-18T21:39:39.665Z,78.33
2019-05-18T21:42:08.103Z,91.40
2019-05-18T21:44:36.803Z,83.37
2019-05-18T21:47:05.314Z,90.07
2019-05-18T21:49:34.228Z,90.20
2019-05-18T21:52:02.671Z,97.63
2019-05-18T21:54:31.141Z,92.07
2019-05-18T21:56:59.592Z,92.93
2019-05-18T21:59:28.023Z,92.73
2019-05-18T22:01:56.505Z,89.70
2019-05-18T22:04:24.963Z,100.33
2019-05-18T22:06:53.570Z,102.50
2019-05-18T22:09:22.555Z,101.37
2019-05-18T22:11:51.052Z,100.37
2019-05-18T22:14:19.509Z,95.40
2019-05-18T22:16:47.942Z,99.60
2019-05-18T22:19:16.357Z,91.30
2019-05-18T22:21:45.097Z,101.40
2019-05-18T22:24:13.865Z,104.50
2019-05-18T22:26:42.328Z,107.40
2019-05-18T22:29:11.066Z,101.17
2019-05-18T22:31:39.537Z,109.30
2019-05-18T22:34:07.941Z,108.13
2019-05-18T22:36:36.418Z,114.67
2019-05-18T22:39:06.772Z,106.43
2019-05-18T22:41:36.830Z,110.27
2019-05-18T22:44:05.248Z,110.23
2019-05-18T22:46:33.962Z,115.70
2019-05-18T22:49:02.387Z,115.33
2019-05-18T22:51:30.803Z,118.20
2019-05-18T22:53:59.250Z,110.63
2019-05-18T22:56:27.972Z,107.07
2019-05-18T22:58:56.472Z,120.13
2019-05-18T23:01:24.928Z,124.10
2019-05-18T23:03:53.424Z,123.33
2019-05-18T23:06:22.212Z,133.60
2019-05-18T23:08:50.610Z,129.50
2019-05-18T23:11:19.024Z,128.20
2019-05-18T23:13:47.446Z,122.30
2019-05-18T23:16:15.882Z,130.83
2019-05-18T23:18:55.895Z,123.47
2019-05-18T23:21:14.673Z,133.27
2019-05-18T23:23:43.069Z,123.67
2019-05-18T23:26:11.873Z,134.63
2019-05-18T23:28:40.416Z,126.00
2019-05-18T23:31:08.853Z,127.30
2019-05-18T23:33:37.257Z,139.80
2019-05-18T23:36:05.722Z,132.13
2019-05-18T23:38:34.375Z,121.20
2019-05-18T23:41:02.876Z,134.80
2019-05-18T23:43:31.298Z,135.63
2019-05-18T23:45:59.759Z,128.27
2019-05-18T23:48:28.219Z,133.70
2019-05-18T23:50:56.642Z,129.33
2019-05-18T23:53:25.055Z,127.17
2019-05-18T23:55:53.523Z,134.33
2019-05-18T23:58:21.936Z,134.57
